Blaine Sectors HQS Heliport

WT34 · 华盛顿州, 美国

罗盘
风向 的 直升机
风: 4 kt, 2 beaufort
0 ft 1.000 2.000 3.000 4.000 5.000
Cloud Cloud Cloud Cloud
SCT 500
Cloud Cloud Cloud Cloud Cloud Cloud
BKN 1.400
Cloud Cloud Cloud Cloud Cloud Cloud Cloud Cloud
OVC 4.000
METAR KBLI 121726Z VRB04KT 5SM BR SCT005 BKN014 OVC040 11/11 A3026 RMK AO2 RAE1658 P0000 T01060106

METAR Blaine Sectors HQS Heliport - WT34

Blaine Sectors HQS Heliport是,美国中的直升机场。 该机场位于纬度48,97556和经度-122,72139。 这个机场没有ICAO代码,我们使用US-D126作为参考。 该机场的本地机场标识(FAA LID)为WT34。 机场在Seattle FIR中。

该航空气象观测是针对Bellingham International Airport在2024年6月12日 10:26, 当地时间进行的。

机场观察

可变方向的风很小或没有风。

可见度为5 mi。

有疏云,零星散落的云朵在500 ft的高度, 碎云在1.400 ft的高度 和 乌云密布在4.000 ft的高度。 破损或更高的上限为1.400 ft。

当前天气为薄雾。 温度和风寒是11 °C。 露点为11 °C,相对湿度为100%。 海平面上的气压为30,26 inHg (QNH)。

白天

今天,太阳从05:06升起,在21:15降落。 这适用于Blaine Sectors HQS Heliport,世界夏令时可能有所不同。 当地时间与世界标准时间之间的时差为-7 小时。 夏令时目前正在进行中。

公司介绍

我们没有关于这个机场的公司信息。

体会

到Vliegles.nl去找飞行课程,跳伞和其他飞行体验。 浏览页面,了解Blaine Sectors HQS Heliport附近所有可用的活动。 你也可以使用搜索功能来寻找你所在地附近的特定飞行课程、跳伞或其他飞行体验。

乌云

500 ft SCT 疏云,零星散落的云朵
1.400 ft BKN 碎云
4.000 ft OVC 乌云密布

温度 & 天气

天气 薄雾
温度 10,6 °C
露点 10,6 °C
相对湿度 100%
Kp-index 1 (0-9)

评论

AO2自动气象站,可确定降水类型
RAE1658雨 结束于 1658, 结束于
P0000自从上次观察以来没有降雨
T01060106温度为10,6 °C (51,1 °F),露点为10,6 °C (51,1 °F)

白天

日出
05:06
中午
13:10
日落
21:13 (10:21)

小工具

你想在你的网站上有一个关于Blaine Sectors HQS Heliport的当前航空天气(METAR)的小部件吗?

显示HTML代码
报告变更